createdAt,value
2023-03-06T00:00:17.685Z,88.47
2023-03-06T00:01:20.917Z,88.49
2023-03-06T00:02:24.085Z,88.53
2023-03-06T00:03:59.527Z,88.55
2023-03-06T00:05:02.684Z,88.57
2023-03-06T00:06:05.814Z,88.64
2023-03-06T00:07:40.759Z,88.64
2023-03-06T00:08:43.727Z,88.62
2023-03-06T00:09:46.787Z,88.57
2023-03-06T00:11:21.512Z,88.54
2023-03-06T00:12:24.426Z,88.57
2023-03-06T00:13:27.362Z,88.52
2023-03-06T00:15:04.067Z,88.55
2023-03-06T00:16:08.907Z,88.57
2023-03-06T00:17:12.342Z,88.64
2023-03-06T00:18:47.308Z,88.76
2023-03-06T00:19:50.422Z,88.73
2023-03-06T00:20:53.395Z,88.65
2023-03-06T00:22:28.396Z,88.60
2023-03-06T00:23:31.313Z,88.56
2023-03-06T00:24:34.116Z,88.57
2023-03-06T00:26:08.869Z,88.43
2023-03-06T00:27:11.850Z,88.43
2023-03-06T00:28:15.095Z,88.42
2023-03-06T00:29:50.401Z,88.37
2023-03-06T00:30:53.598Z,88.23
2023-03-06T00:31:57.377Z,88.15
2023-03-06T00:33:32.707Z,88.01
2023-03-06T00:34:35.686Z,88.01
2023-03-06T00:35:39.080Z,88.00
2023-03-06T00:37:14.286Z,88.09
2023-03-06T00:38:17.356Z,88.11
2023-03-06T00:39:20.578Z,88.06
2023-03-06T00:40:55.606Z,88.13
2023-03-06T00:41:58.576Z,88.09
2023-03-06T00:43:01.501Z,88.09
2023-03-06T00:44:36.295Z,87.99
2023-03-06T00:45:39.251Z,88.12
2023-03-06T00:46:42.513Z,88.17
2023-03-06T00:48:17.473Z,88.34
2023-03-06T00:49:20.405Z,88.40
2023-03-06T00:50:23.525Z,88.47
2023-03-06T00:52:00.246Z,88.59
2023-03-06T00:53:03.398Z,88.63
2023-03-06T00:54:06.350Z,88.63
2023-03-06T00:55:41.422Z,88.78
2023-03-06T00:56:44.527Z,88.91
2023-03-06T00:57:47.567Z,89.01
2023-03-06T00:59:22.414Z,89.22
2023-03-06T01:00:18.307Z,89.31
2023-03-06T01:01:21.567Z,89.33
2023-03-06T01:02:24.757Z,89.44
2023-03-06T01:03:59.930Z,89.58
2023-03-06T01:05:02.853Z,89.63
2023-03-06T01:06:05.912Z,89.55
2023-03-06T01:07:40.934Z,89.73
2023-03-06T01:08:44.098Z,89.79
2023-03-06T01:09:47.286Z,89.86
2023-03-06T01:11:22.278Z,89.90
2023-03-06T01:12:28.420Z,89.83
2023-03-06T01:13:31.198Z,89.90
2023-03-06T01:15:06.080Z,89.87
2023-03-06T01:16:09.070Z,89.93
2023-03-06T01:17:12.133Z,89.93
2023-03-06T01:18:46.709Z,89.94
2023-03-06T01:19:50.065Z,89.99
2023-03-06T01:20:52.988Z,90.01
2023-03-06T01:22:27.795Z,89.98
2023-03-06T01:23:30.789Z,90.02
2023-03-06T01:24:33.828Z,90.01
2023-03-06T01:26:08.931Z,90.09
2023-03-06T01:27:12.257Z,90.13
2023-03-06T01:28:15.235Z,90.14
2023-03-06T01:29:49.965Z,90.25
2023-03-06T01:30:52.968Z,90.26
2023-03-06T01:31:56.277Z,90.24
2023-03-06T01:33:31.590Z,90.33
2023-03-06T01:34:34.543Z,90.35
2023-03-06T01:35:37.895Z,90.40
2023-03-06T01:37:13.024Z,90.52
2023-03-06T01:38:15.976Z,90.49
2023-03-06T01:39:18.991Z,90.48
2023-03-06T01:40:54.202Z,90.56
2023-03-06T01:41:57.671Z,90.64
2023-03-06T01:43:00.697Z,90.69
2023-03-06T01:44:35.865Z,90.71
2023-03-06T01:45:39.215Z,90.72
2023-03-06T01:46:42.478Z,90.80
2023-03-06T01:48:17.515Z,90.76
2023-03-06T01:49:20.473Z,90.75
2023-03-06T01:50:23.555Z,90.79
2023-03-06T01:51:58.189Z,90.82
2023-03-06T01:53:01.207Z,90.80
2023-03-06T01:54:03.931Z,90.75
2023-03-06T01:55:38.662Z,90.76
2023-03-06T01:56:41.840Z,90.83
2023-03-06T01:57:45.054Z,90.80
2023-03-06T01:59:19.914Z,90.75
2023-03-06T02:00:17.985Z,90.72
2023-03-06T02:01:20.929Z,90.71
2023-03-06T02:02:24.109Z,90.71
2023-03-06T02:03:59.177Z,90.72
2023-03-06T02:05:02.182Z,90.82
2023-03-06T02:06:05.127Z,90.73
2023-03-06T02:07:40.048Z,90.98
2023-03-06T02:08:42.846Z,91.01
2023-03-06T02:09:45.742Z,91.11
2023-03-06T02:11:20.721Z,91.05
2023-03-06T02:12:24.075Z,91.12
2023-03-06T02:13:27.198Z,91.12
2023-03-06T02:15:01.942Z,91.09
2023-03-06T02:16:04.930Z,90.99
2023-03-06T02:17:08.106Z,91.00
2023-03-06T02:18:42.853Z,91.00
2023-03-06T02:19:46.021Z,91.00
2023-03-06T02:20:49.093Z,91.03
2023-03-06T02:22:23.957Z,91.09
2023-03-06T02:23:26.907Z,91.13
2023-03-06T02:24:29.961Z,91.09
2023-03-06T02:26:04.898Z,91.22
2023-03-06T02:27:08.001Z,91.23
2023-03-06T02:28:11.052Z,91.41
2023-03-06T02:29:46.013Z,91.46
2023-03-06T02:30:49.160Z,91.43
2023-03-06T02:31:52.489Z,91.57
2023-03-06T02:33:28.070Z,91.69
2023-03-06T02:34:31.160Z,91.90
2023-03-06T02:35:34.272Z,91.88
2023-03-06T02:37:09.595Z,91.95
2023-03-06T02:38:12.446Z,92.05
2023-03-06T02:39:15.495Z,92.01
2023-03-06T02:40:50.198Z,92.10
2023-03-06T02:41:52.944Z,92.23
2023-03-06T02:42:55.968Z,92.26
2023-03-06T02:44:30.629Z,92.35
2023-03-06T02:45:33.763Z,92.34
2023-03-06T02:46:37.221Z,92.35
2023-03-06T02:48:12.117Z,92.37
2023-03-06T02:49:15.160Z,92.45
2023-03-06T02:50:18.289Z,92.51
2023-03-06T02:51:53.168Z,92.55
2023-03-06T02:52:56.331Z,92.61
2023-03-06T02:53:59.391Z,92.59
2023-03-06T02:55:34.195Z,92.64
2023-03-06T02:56:37.278Z,92.74
2023-03-06T02:57:40.228Z,92.74
2023-03-06T02:59:15.117Z,92.74
2023-03-06T03:00:17.387Z,92.83
2023-03-06T03:01:20.794Z,92.82
2023-03-06T03:02:24.351Z,92.79
2023-03-06T03:03:59.085Z,92.77
2023-03-06T03:05:02.524Z,92.78
2023-03-06T03:06:05.748Z,92.78
2023-03-06T03:07:40.816Z,92.76
2023-03-06T03:08:43.813Z,92.70
2023-03-06T03:09:46.925Z,92.76
2023-03-06T03:11:21.991Z,92.68
2023-03-06T03:12:24.864Z,92.64
2023-03-06T03:13:27.722Z,92.61
2023-03-06T03:15:02.396Z,92.58
2023-03-06T03:16:05.568Z,92.52
2023-03-06T03:17:08.707Z,92.56
2023-03-06T03:18:43.603Z,92.59
2023-03-06T03:19:46.447Z,92.55
2023-03-06T03:20:49.507Z,92.54
2023-03-06T03:22:24.496Z,92.54
2023-03-06T03:23:27.559Z,92.54
2023-03-06T03:24:30.832Z,92.56
2023-03-06T03:26:06.168Z,92.53
2023-03-06T03:27:09.120Z,92.48
2023-03-06T03:28:11.935Z,92.48
2023-03-06T03:29:46.523Z,92.52
2023-03-06T03:30:49.239Z,92.55
2023-03-06T03:31:52.227Z,92.54
2023-03-06T03:33:27.391Z,92.45
2023-03-06T03:34:30.331Z,92.49
2023-03-06T03:35:33.697Z,92.47
2023-03-06T03:37:08.840Z,92.43
2023-03-06T03:38:11.789Z,92.50
2023-03-06T03:39:14.803Z,92.54
2023-03-06T03:40:49.695Z,92.51
2023-03-06T03:41:52.824Z,92.48
2023-03-06T03:42:55.832Z,92.59
2023-03-06T03:44:31.261Z,92.62
2023-03-06T03:45:34.598Z,92.62
2023-03-06T03:46:37.447Z,92.60
2023-03-06T03:48:12.709Z,92.63
2023-03-06T03:49:15.715Z,92.59
2023-03-06T03:50:18.822Z,92.63
2023-03-06T03:51:53.573Z,92.63
2023-03-06T03:52:56.428Z,92.63
2023-03-06T03:53:59.405Z,92.68
2023-03-06T03:55:34.298Z,92.71
2023-03-06T03:56:37.358Z,92.66
2023-03-06T03:57:40.329Z,92.68
2023-03-06T03:59:15.207Z,92.69
2023-03-06T04:00:18.010Z,92.64
2023-03-06T04:01:21.128Z,92.59
2023-03-06T04:02:26.073Z,92.73
2023-03-06T04:04:00.893Z,92.69
2023-03-06T04:05:03.947Z,92.73
2023-03-06T04:06:06.914Z,92.65
2023-03-06T04:07:41.950Z,92.76
2023-03-06T04:08:44.941Z,92.77
2023-03-06T04:09:47.942Z,92.73
2023-03-06T04:11:23.030Z,92.68
2023-03-06T04:12:26.135Z,92.63
2023-03-06T04:13:29.231Z,92.63
2023-03-06T04:15:04.379Z,92.59
2023-03-06T04:16:07.582Z,92.58
2023-03-06T04:17:10.865Z,92.61
2023-03-06T04:18:45.932Z,92.62
2023-03-06T04:19:48.939Z,92.59
2023-03-06T04:20:51.744Z,92.55
2023-03-06T04:22:26.505Z,92.60
2023-03-06T04:23:29.310Z,92.52
2023-03-06T04:24:32.343Z,92.47
2023-03-06T04:26:07.036Z,92.51
2023-03-06T04:27:10.074Z,92.52
2023-03-06T04:28:13.178Z,92.51
2023-03-06T04:29:48.214Z,92.54
2023-03-06T04:30:51.248Z,92.53
2023-03-06T04:31:54.570Z,92.53
2023-03-06T04:33:33.408Z,92.53
2023-03-06T04:34:36.519Z,92.56
2023-03-06T04:35:39.696Z,92.49
2023-03-06T04:37:14.905Z,92.37
2023-03-06T04:38:17.733Z,92.41
2023-03-06T04:39:20.909Z,92.36
2023-03-06T04:40:56.236Z,92.39
2023-03-06T04:41:59.980Z,92.39
2023-03-06T04:43:03.058Z,92.41
2023-03-06T04:44:37.886Z,92.44
2023-03-06T04:45:40.884Z,92.54
2023-03-06T04:46:44.303Z,92.88
2023-03-06T04:48:19.218Z,92.98
2023-03-06T04:49:22.423Z,93.02
2023-03-06T04:50:25.427Z,93.17
2023-03-06T04:52:00.301Z,93.22
2023-03-06T04:53:02.980Z,93.33
2023-03-06T04:54:05.845Z,93.36
2023-03-06T04:55:42.856Z,93.47
2023-03-06T04:56:45.677Z,93.49
2023-03-06T04:57:48.542Z,93.54
2023-03-06T04:59:23.284Z,93.70
2023-03-06T05:00:17.613Z,93.68
2023-03-06T05:01:20.865Z,93.78
2023-03-06T05:02:24.087Z,93.85
2023-03-06T05:03:59.000Z,93.87
2023-03-06T05:05:47.365Z,94.06
2023-03-06T05:06:51.075Z,94.11
2023-03-06T05:07:54.488Z,94.09
2023-03-06T05:09:29.627Z,94.19
2023-03-06T05:10:34.243Z,94.23
2023-03-06T05:11:37.345Z,94.27
2023-03-06T05:13:12.489Z,94.36
2023-03-06T05:14:15.677Z,94.40
2023-03-06T05:15:18.823Z,94.33
2023-03-06T05:16:54.047Z,94.56
2023-03-06T05:17:57.198Z,94.55
2023-03-06T05:19:00.426Z,94.61
2023-03-06T05:20:35.671Z,94.68
2023-03-06T05:21:38.660Z,94.71
2023-03-06T05:22:41.902Z,94.71
2023-03-06T05:24:16.997Z,94.65
2023-03-06T05:25:19.979Z,94.65
2023-03-06T05:26:23.008Z,94.56
2023-03-06T05:27:57.831Z,94.57
2023-03-06T05:29:00.885Z,94.47
2023-03-06T05:30:04.226Z,94.44
2023-03-06T05:31:39.872Z,94.36
2023-03-06T05:32:43.687Z,94.38
2023-03-06T05:33:47.030Z,94.41
2023-03-06T05:35:22.072Z,94.45
2023-03-06T05:36:25.817Z,94.50
2023-03-06T05:37:29.067Z,94.44
2023-03-06T05:39:04.998Z,94.49
2023-03-06T05:40:08.158Z,94.49
2023-03-06T05:41:11.114Z,94.45
2023-03-06T05:42:46.326Z,94.52
2023-03-06T05:43:49.173Z,94.56
2023-03-06T05:44:52.323Z,94.61
2023-03-06T05:46:27.759Z,94.66
2023-03-06T05:47:30.817Z,94.66
2023-03-06T05:48:34.009Z,94.62
2023-03-06T05:50:10.930Z,94.66
2023-03-06T05:51:14.013Z,94.69
2023-03-06T05:52:17.081Z,94.75
2023-03-06T05:53:52.212Z,94.72
2023-03-06T05:54:55.234Z,94.73
2023-03-06T05:55:58.245Z,94.70
2023-03-06T05:57:34.629Z,94.65
2023-03-06T05:58:37.519Z,94.72
2023-03-06T05:59:40.917Z,94.80
2023-03-06T06:00:17.851Z,94.80
2023-03-06T06:01:20.848Z,94.87
2023-03-06T06:02:24.331Z,94.97
2023-03-06T06:04:00.080Z,95.11
2023-03-06T06:05:03.251Z,95.17
2023-03-06T06:06:08.901Z,95.21
2023-03-06T06:07:44.032Z,95.13
2023-03-06T06:08:46.878Z,95.22
2023-03-06T06:09:49.809Z,95.18
2023-03-06T06:11:27.711Z,95.16
2023-03-06T06:12:30.945Z,95.15
2023-03-06T06:13:34.095Z,95.21
2023-03-06T06:15:09.159Z,95.21
2023-03-06T06:16:12.684Z,95.29
2023-03-06T06:17:15.880Z,95.33
2023-03-06T06:18:50.885Z,95.27
2023-03-06T06:19:53.913Z,95.27
2023-03-06T06:20:57.232Z,95.33
2023-03-06T06:22:32.092Z,95.33
2023-03-06T06:23:35.346Z,95.38
2023-03-06T06:24:38.432Z,95.41
2023-03-06T06:26:13.438Z,95.48
2023-03-06T06:27:16.511Z,95.56
2023-03-06T06:28:19.827Z,95.53
2023-03-06T06:29:55.001Z,95.52
2023-03-06T06:30:58.228Z,95.47
2023-03-06T06:32:01.730Z,95.46
2023-03-06T06:33:36.940Z,95.41
2023-03-06T06:34:40.335Z,95.45
2023-03-06T06:35:43.874Z,95.42
2023-03-06T06:37:19.436Z,95.48
2023-03-06T06:38:22.721Z,95.47
2023-03-06T06:39:25.856Z,95.48
2023-03-06T06:41:54.930Z,95.48
2023-03-06T06:43:31.526Z,95.42
2023-03-06T06:44:34.608Z,95.46
2023-03-06T06:47:21.976Z,95.47
2023-03-06T06:48:26.159Z,95.58
2023-03-06T06:49:29.523Z,95.50
2023-03-06T06:51:04.970Z,95.51
2023-03-06T06:52:08.236Z,95.51
2023-03-06T06:53:11.226Z,95.56
2023-03-06T06:54:46.332Z,95.62
2023-03-06T06:55:49.494Z,95.58
2023-03-06T06:56:52.704Z,95.65
2023-03-06T06:58:27.814Z,95.61
2023-03-06T06:59:31.167Z,95.69
2023-03-06T07:00:17.937Z,95.63
2023-03-06T07:01:21.285Z,95.62
2023-03-06T07:02:24.710Z,95.60
2023-03-06T07:04:00.001Z,95.58
2023-03-06T07:05:10.096Z,95.61
2023-03-06T07:06:14.291Z,95.60
2023-03-06T07:07:49.466Z,95.57
2023-03-06T07:08:52.685Z,95.50
2023-03-06T07:09:55.927Z,95.43
2023-03-06T07:11:33.221Z,95.41
2023-03-06T07:12:36.324Z,95.49
2023-03-06T07:13:39.478Z,95.48
2023-03-06T07:15:14.777Z,95.56
2023-03-06T07:16:18.590Z,95.61
2023-03-06T07:17:21.776Z,95.63
2023-03-06T07:18:56.883Z,95.60
2023-03-06T07:20:00.208Z,95.73
2023-03-06T07:21:05.007Z,95.59
2023-03-06T07:22:56.810Z,95.67
2023-03-06T07:23:59.919Z,95.54
2023-03-06T07:25:02.909Z,95.49
2023-03-06T07:26:40.654Z,95.28
2023-03-06T07:27:47.002Z,95.28
2023-03-06T07:28:59.046Z,95.14
2023-03-06T07:30:33.981Z,95.07
2023-03-06T07:31:37.385Z,95.06
2023-03-06T07:32:40.772Z,94.99
2023-03-06T07:34:15.926Z,94.62
2023-03-06T07:35:26.511Z,94.70
2023-03-06T07:36:30.071Z,94.43
2023-03-06T07:38:05.126Z,94.23
2023-03-06T07:39:08.416Z,93.76
2023-03-06T07:40:11.457Z,93.75
2023-03-06T07:41:46.372Z,93.71
2023-03-06T07:42:49.166Z,93.69
2023-03-06T07:44:10.807Z,93.33
2023-03-06T07:45:46.013Z,93.24
2023-03-06T07:46:49.382Z,93.17
2023-03-06T07:47:52.720Z,93.39
2023-03-06T07:49:30.634Z,93.34
2023-03-06T07:50:33.404Z,93.19
2023-03-06T07:51:36.373Z,93.17
2023-03-06T07:53:11.672Z,93.36
2023-03-06T07:54:14.811Z,93.31
2023-03-06T07:55:17.981Z,93.33
2023-03-06T07:56:52.915Z,92.79
2023-03-06T07:57:56.012Z,93.19
2023-03-06T07:59:01.660Z,93.29
2023-03-06T08:00:17.723Z,93.14
2023-03-06T08:01:21.056Z,92.89
2023-03-06T08:02:23.984Z,92.87
2023-03-06T08:03:59.913Z,92.54
2023-03-06T08:05:03.263Z,92.13
2023-03-06T08:06:06.857Z,92.21
2023-03-06T08:07:41.921Z,92.20
2023-03-06T08:08:45.046Z,92.04
2023-03-06T08:09:48.659Z,91.86
2023-03-06T08:11:23.807Z,91.76
2023-03-06T08:12:26.734Z,91.54
2023-03-06T08:13:29.753Z,91.42
2023-03-06T08:15:04.950Z,91.24
2023-03-06T08:16:08.154Z,90.98
2023-03-06T08:17:11.403Z,90.89
2023-03-06T08:18:46.702Z,90.82
2023-03-06T08:19:49.725Z,90.76
2023-03-06T08:20:52.627Z,90.71
2023-03-06T08:22:28.042Z,90.34
2023-03-06T08:23:30.873Z,90.16
2023-03-06T08:24:34.063Z,90.35
2023-03-06T08:26:09.686Z,90.26
2023-03-06T08:27:12.750Z,90.31
2023-03-06T08:28:15.988Z,90.32
2023-03-06T08:29:50.887Z,90.01
2023-03-06T08:30:53.922Z,89.97
2023-03-06T08:31:57.199Z,90.05
2023-03-06T08:33:32.877Z,90.38
2023-03-06T08:34:35.818Z,90.45
2023-03-06T08:35:39.054Z,90.43
2023-03-06T08:37:15.238Z,90.02
2023-03-06T08:38:18.958Z,89.97
2023-03-06T08:39:21.924Z,89.93
2023-03-06T08:40:57.026Z,89.96
2023-03-06T08:42:01.233Z,89.84
2023-03-06T08:43:04.338Z,89.83
2023-03-06T08:44:42.361Z,89.83
2023-03-06T08:45:45.669Z,89.71
2023-03-06T08:46:49.240Z,89.73
2023-03-06T08:48:24.568Z,89.82
2023-03-06T08:49:27.492Z,89.75
2023-03-06T08:50:30.753Z,89.78
2023-03-06T08:52:05.874Z,89.66
2023-03-06T08:53:08.976Z,89.65
2023-03-06T08:54:29.457Z,89.50
2023-03-06T08:56:07.021Z,89.19
2023-03-06T08:57:10.302Z,88.85
2023-03-06T08:58:13.677Z,88.60
2023-03-06T08:59:48.977Z,88.74
2023-03-06T09:00:18.376Z,88.41
2023-03-06T09:01:21.951Z,88.35
2023-03-06T09:02:25.679Z,88.34
2023-03-06T09:04:01.082Z,88.18
2023-03-06T09:05:04.155Z,87.97
2023-03-06T09:06:07.453Z,88.11
2023-03-06T09:07:42.674Z,88.05
2023-03-06T09:08:45.875Z,88.14
2023-03-06T09:09:49.050Z,88.15
2023-03-06T09:11:24.366Z,87.54
2023-03-06T09:12:29.290Z,87.50
2023-03-06T09:13:47.282Z,87.59
2023-03-06T09:15:22.374Z,87.26
2023-03-06T09:16:25.622Z,87.49
2023-03-06T09:17:29.421Z,87.72
2023-03-06T09:19:05.113Z,87.48
2023-03-06T09:20:10.403Z,87.40
2023-03-06T09:21:13.753Z,87.07
2023-03-06T09:22:48.744Z,86.22
2023-03-06T09:23:51.710Z,85.47
2023-03-06T09:24:54.747Z,85.38
2023-03-06T09:26:47.178Z,85.37
2023-03-06T09:28:01.779Z,84.09
2023-03-06T09:29:09.977Z,84.31
2023-03-06T09:30:45.248Z,82.96
2023-03-06T09:31:48.765Z,82.88
2023-03-06T09:32:52.798Z,81.36
2023-03-06T09:34:27.816Z,80.97
2023-03-06T09:35:31.016Z,81.47
2023-03-06T09:36:45.847Z,82.15
2023-03-06T09:38:30.188Z,82.17
2023-03-06T09:39:33.320Z,81.71
2023-03-06T09:40:36.564Z,81.70
2023-03-06T09:42:11.708Z,81.70
2023-03-06T09:43:16.548Z,80.99
2023-03-06T09:44:19.858Z,80.26
2023-03-06T09:45:55.563Z,81.06
2023-03-06T09:46:58.918Z,81.44
2023-03-06T09:48:02.136Z,80.33
2023-03-06T09:49:37.494Z,79.44
2023-03-06T09:50:40.667Z,79.80
2023-03-06T09:51:45.803Z,79.44
2023-03-06T09:53:20.912Z,80.03
2023-03-06T09:54:24.158Z,80.03
2023-03-06T09:55:27.367Z,79.94
2023-03-06T09:57:02.616Z,78.52
2023-03-06T09:58:07.442Z,78.66
2023-03-06T09:59:10.741Z,78.95
2023-03-06T10:00:18.021Z,78.27
2023-03-06T10:01:21.174Z,78.43
2023-03-06T10:02:24.454Z,78.68
2023-03-06T10:04:01.329Z,79.40
2023-03-06T10:05:04.512Z,79.15
2023-03-06T10:06:08.506Z,78.66
2023-03-06T10:07:43.618Z,79.16
2023-03-06T10:08:46.763Z,77.98
2023-03-06T10:09:49.950Z,78.42
2023-03-06T10:11:25.030Z,78.00
2023-03-06T10:12:30.565Z,78.39
2023-03-06T10:13:33.580Z,78.34
2023-03-06T10:15:08.502Z,77.69
2023-03-06T10:16:12.013Z,77.76
2023-03-06T10:17:15.302Z,77.79
2023-03-06T10:18:50.240Z,77.52
2023-03-06T10:19:53.359Z,76.95
2023-03-06T10:20:56.382Z,76.76
2023-03-06T10:23:00.574Z,76.45
2023-03-06T10:24:08.416Z,76.43
2023-03-06T10:25:11.560Z,76.62
2023-03-06T10:26:46.980Z,75.81
2023-03-06T10:27:50.551Z,75.99
2023-03-06T10:28:53.534Z,75.76
2023-03-06T10:30:44.232Z,74.38
2023-03-06T10:31:47.537Z,74.79
2023-03-06T10:32:55.289Z,74.70
2023-03-06T10:34:30.177Z,74.56
2023-03-06T10:35:36.060Z,74.30
2023-03-06T10:36:39.555Z,74.34
2023-03-06T10:38:14.205Z,74.76
2023-03-06T10:39:17.445Z,74.74
2023-03-06T10:40:20.625Z,74.13
2023-03-06T10:41:55.759Z,74.39
2023-03-06T10:43:16.663Z,72.72
2023-03-06T10:44:22.661Z,74.33
2023-03-06T10:45:57.636Z,74.21
2023-03-06T10:47:00.791Z,70.49
2023-03-06T10:48:03.882Z,70.25
2023-03-06T10:49:38.686Z,72.96
2023-03-06T10:50:41.627Z,74.63
2023-03-06T10:51:58.377Z,73.12
2023-03-06T10:53:33.011Z,72.48
2023-03-06T10:54:36.105Z,72.07
2023-03-06T10:55:39.218Z,70.67
2023-03-06T10:57:14.492Z,72.04
2023-03-06T10:58:17.602Z,71.34
2023-03-06T10:59:20.946Z,72.16
2023-03-06T11:00:19.190Z,70.90
2023-03-06T11:01:23.060Z,70.31
2023-03-06T11:02:26.343Z,69.66
2023-03-06T11:04:01.112Z,69.52
2023-03-06T11:05:04.383Z,67.58
2023-03-06T11:06:07.334Z,67.76
2023-03-06T11:07:42.893Z,65.16
2023-03-06T11:08:45.798Z,67.11
2023-03-06T11:09:48.661Z,69.83
2023-03-06T11:11:40.809Z,67.94
2023-03-06T11:12:43.884Z,65.94
2023-03-06T11:13:46.998Z,66.93
2023-03-06T11:15:22.061Z,66.72
2023-03-06T11:16:26.059Z,67.96
2023-03-06T11:17:29.316Z,67.14
2023-03-06T11:19:04.313Z,68.25
2023-03-06T11:20:07.523Z,66.85
2023-03-06T11:21:31.401Z,66.58
2023-03-06T11:23:06.997Z,67.00
2023-03-06T11:24:09.814Z,66.15
2023-03-06T11:25:12.819Z,65.74
2023-03-06T11:26:47.763Z,62.30
2023-03-06T11:27:50.819Z,63.20
2023-03-06T11:28:54.018Z,63.71
2023-03-06T11:30:30.863Z,64.99
2023-03-06T11:31:33.997Z,63.69
2023-03-06T11:32:37.699Z,62.26
2023-03-06T11:34:12.494Z,64.03
2023-03-06T11:35:15.674Z,64.39
2023-03-06T11:36:18.872Z,63.38
2023-03-06T11:37:53.887Z,63.82
2023-03-06T11:38:56.902Z,63.97
2023-03-06T11:40:01.649Z,64.35
2023-03-06T11:41:36.674Z,64.63
2023-03-06T11:42:39.665Z,65.08
2023-03-06T11:43:42.671Z,64.84
2023-03-06T11:45:17.471Z,65.90
2023-03-06T11:46:20.658Z,67.14
2023-03-06T11:47:24.032Z,65.47
2023-03-06T11:48:59.126Z,65.29
2023-03-06T11:50:01.978Z,65.37
2023-03-06T11:51:06.393Z,62.87
2023-03-06T11:52:41.565Z,63.94
2023-03-06T11:53:44.621Z,63.69
2023-03-06T11:54:47.567Z,62.42
2023-03-06T11:56:22.471Z,61.80
2023-03-06T11:57:28.839Z,61.57
2023-03-06T11:58:31.871Z,60.86
2023-03-06T12:00:18.321Z,61.28
2023-03-06T12:01:21.644Z,61.69
2023-03-06T12:02:24.736Z,61.23
2023-03-06T12:04:01.484Z,61.18
2023-03-06T12:05:04.985Z,61.16
2023-03-06T12:06:08.802Z,60.89
2023-03-06T12:07:46.209Z,59.50
2023-03-06T12:08:49.365Z,59.49
2023-03-06T12:09:52.583Z,59.48
2023-03-06T12:11:33.333Z,61.62
2023-03-06T12:12:36.604Z,59.92
2023-03-06T12:13:39.949Z,60.84
2023-03-06T12:15:16.748Z,59.92
2023-03-06T12:16:19.727Z,59.27
2023-03-06T12:17:23.152Z,59.49
2023-03-06T12:18:57.977Z,60.75
2023-03-06T12:20:01.140Z,62.35
2023-03-06T12:21:04.077Z,62.93
2023-03-06T12:22:39.078Z,62.13
2023-03-06T12:24:07.545Z,62.20
2023-03-06T12:25:10.884Z,62.73
2023-03-06T12:26:45.889Z,62.85
2023-03-06T12:27:48.982Z,62.50
2023-03-06T12:28:52.307Z,62.64
2023-03-06T12:30:26.976Z,58.46
2023-03-06T12:31:30.330Z,59.94
2023-03-06T12:32:33.698Z,60.40
2023-03-06T12:34:08.844Z,59.47
2023-03-06T12:35:12.043Z,61.44
2023-03-06T12:36:15.227Z,62.08
2023-03-06T12:37:50.124Z,64.29
2023-03-06T12:38:53.167Z,63.61
2023-03-06T12:39:57.821Z,63.20
2023-03-06T12:41:34.075Z,60.32
2023-03-06T12:42:37.172Z,61.34
2023-03-06T12:43:40.366Z,60.62
2023-03-06T12:45:15.790Z,60.03
2023-03-06T12:46:19.261Z,59.26
2023-03-06T12:47:22.469Z,60.66
2023-03-06T12:48:57.381Z,59.42
2023-03-06T12:50:14.046Z,59.55
2023-03-06T12:51:17.258Z,60.66
2023-03-06T12:52:52.982Z,60.92
2023-03-06T12:53:56.016Z,58.67
2023-03-06T12:54:59.273Z,58.86
2023-03-06T12:56:38.423Z,60.64
2023-03-06T12:57:41.531Z,61.89
2023-03-06T12:58:44.640Z,61.74
2023-03-06T13:00:17.860Z,59.44
2023-03-06T13:01:21.166Z,59.81
2023-03-06T13:02:24.768Z,59.29
2023-03-06T13:03:59.907Z,59.30
2023-03-06T13:05:02.849Z,59.69
2023-03-06T13:06:05.835Z,59.90
2023-03-06T13:07:42.943Z,58.14
2023-03-06T13:08:47.798Z,58.50
2023-03-06T13:09:51.013Z,59.69
2023-03-06T13:11:26.028Z,58.32
2023-03-06T13:12:29.121Z,57.86
2023-03-06T13:13:32.252Z,56.27
2023-03-06T13:15:07.386Z,56.49
2023-03-06T13:16:10.567Z,58.76
2023-03-06T13:17:13.870Z,59.09
2023-03-06T13:18:48.941Z,59.72
2023-03-06T13:19:52.022Z,58.91
2023-03-06T13:20:54.955Z,58.31
2023-03-06T13:22:30.015Z,58.39
2023-03-06T13:23:32.796Z,58.06
2023-03-06T13:24:36.656Z,57.50
2023-03-06T13:26:26.595Z,59.48
2023-03-06T13:27:29.380Z,59.79
2023-03-06T13:28:32.695Z,60.11
2023-03-06T13:30:08.067Z,59.48
2023-03-06T13:31:27.057Z,59.10
2023-03-06T13:32:30.999Z,59.10
2023-03-06T13:34:06.544Z,59.31
2023-03-06T13:35:09.817Z,58.36
2023-03-06T13:36:12.967Z,58.82
2023-03-06T13:37:51.997Z,58.50
2023-03-06T13:38:54.971Z,58.39
2023-03-06T13:39:58.066Z,58.09
2023-03-06T13:41:32.835Z,56.93
2023-03-06T13:42:35.786Z,57.62
2023-03-06T13:43:38.818Z,57.98
2023-03-06T13:45:14.876Z,57.45
2023-03-06T13:46:17.962Z,58.74
2023-03-06T13:47:21.433Z,56.38
2023-03-06T13:49:53.877Z,56.10
2023-03-06T13:50:57.021Z,55.13
2023-03-06T13:52:00.107Z,53.92
2023-03-06T13:53:35.735Z,54.26
2023-03-06T13:54:39.077Z,56.22
2023-03-06T13:55:42.099Z,56.27
2023-03-06T13:57:16.901Z,56.90
2023-03-06T13:58:19.812Z,57.82
2023-03-06T13:59:22.755Z,57.82
2023-03-06T14:00:17.666Z,57.69
2023-03-06T14:01:20.743Z,57.31
2023-03-06T14:02:24.036Z,57.50
2023-03-06T14:03:59.424Z,57.18
2023-03-06T14:05:02.549Z,57.11
2023-03-06T14:06:05.650Z,57.64
2023-03-06T14:07:40.815Z,58.79
2023-03-06T14:08:44.079Z,58.37
2023-03-06T14:09:47.302Z,57.34
2023-03-06T14:11:22.241Z,58.57
2023-03-06T14:12:25.643Z,59.69
2023-03-06T14:13:35.041Z,59.71
2023-03-06T14:15:17.448Z,58.05
2023-03-06T14:16:20.811Z,59.22
2023-03-06T14:17:41.483Z,58.82
2023-03-06T14:19:16.404Z,58.50
2023-03-06T14:20:19.356Z,58.93
2023-03-06T14:21:22.452Z,58.80
2023-03-06T14:22:57.802Z,57.81
2023-03-06T14:24:01.005Z,57.94
2023-03-06T14:25:04.348Z,57.96
2023-03-06T14:26:39.510Z,58.08
2023-03-06T14:27:42.523Z,57.42
2023-03-06T14:29:00.349Z,58.14
2023-03-06T14:30:35.342Z,57.92
2023-03-06T14:31:38.694Z,58.83
2023-03-06T14:32:41.966Z,59.10
2023-03-06T14:34:16.795Z,59.87
2023-03-06T14:35:19.935Z,60.06
2023-03-06T14:36:22.965Z,59.78
2023-03-06T14:37:57.948Z,58.88
2023-03-06T14:39:01.229Z,58.03
2023-03-06T14:40:04.422Z,57.52
2023-03-06T14:41:39.640Z,56.97
2023-03-06T14:42:42.557Z,58.38
2023-03-06T14:43:45.567Z,58.80
2023-03-06T14:45:20.761Z,58.58
2023-03-06T14:46:23.898Z,59.11
2023-03-06T14:47:27.455Z,58.91
2023-03-06T14:49:02.291Z,56.93
2023-03-06T14:50:05.537Z,57.96
2023-03-06T14:51:08.540Z,58.72
2023-03-06T14:52:43.394Z,59.42
2023-03-06T14:53:46.400Z,58.88
2023-03-06T14:54:49.379Z,58.57
2023-03-06T14:56:24.499Z,60.47
2023-03-06T14:57:27.582Z,60.47
2023-03-06T14:58:30.795Z,60.63
2023-03-06T15:00:18.162Z,61.94
2023-03-06T15:01:21.712Z,61.23
2023-03-06T15:02:25.146Z,61.24
2023-03-06T15:04:00.245Z,61.12
2023-03-06T15:05:03.399Z,61.98
2023-03-06T15:06:06.383Z,61.34
2023-03-06T15:07:41.587Z,60.10
2023-03-06T15:08:44.695Z,60.67
2023-03-06T15:09:48.580Z,61.03
2023-03-06T15:11:23.513Z,62.55
2023-03-06T15:12:26.640Z,63.03
2023-03-06T15:13:29.566Z,63.08
2023-03-06T15:15:04.590Z,62.75
2023-03-06T15:16:07.870Z,62.69
2023-03-06T15:17:11.286Z,63.52
2023-03-06T15:18:46.313Z,64.35
2023-03-06T15:19:49.435Z,64.88
2023-03-06T15:20:52.463Z,64.80
2023-03-06T15:22:27.514Z,64.99
2023-03-06T15:23:30.419Z,64.93
2023-03-06T15:24:33.560Z,65.05
2023-03-06T15:26:08.368Z,66.21
2023-03-06T15:27:13.746Z,66.60
2023-03-06T15:28:17.022Z,66.79
2023-03-06T15:30:01.756Z,67.72
2023-03-06T15:31:04.830Z,67.14
2023-03-06T15:32:08.691Z,67.26
2023-03-06T15:33:44.199Z,67.43
2023-03-06T15:34:47.342Z,67.06
2023-03-06T15:35:50.521Z,67.13
2023-03-06T15:37:25.920Z,67.73
2023-03-06T15:38:28.786Z,68.75
2023-03-06T15:39:31.692Z,69.83
2023-03-06T15:41:06.628Z,72.81
2023-03-06T15:42:11.588Z,74.82
2023-03-06T15:43:14.619Z,75.78
2023-03-06T15:44:49.636Z,78.14
2023-03-06T15:45:53.016Z,78.60
2023-03-06T15:47:09.180Z,79.72
2023-03-06T15:48:44.506Z,80.56
2023-03-06T15:49:49.267Z,81.44
2023-03-06T15:50:52.662Z,81.48
2023-03-06T15:52:28.268Z,82.19
2023-03-06T15:53:31.180Z,82.52
2023-03-06T15:54:46.536Z,82.98
2023-03-06T15:56:21.753Z,83.42
2023-03-06T15:57:24.957Z,83.67